Aviation Digital Data Service (ADDS)

Output produced by TAFs form (2124 UTC 18 April 2014)
found at http://www.aviationweather.gov/adds/tafs/
 
KABE 181720Z 1818/1918 20005KT P6SM FEW050 BKN250 
     FM190500 25005KT P6SM FEW030 BKN250 
     FM191500 31009G16KT P6SM SKC